sensor_id;sensor_type;location;lat;lon;timestamp;temperature;humidity
71668;DHT22;59504;54.806;9.640;2022-10-20T00:00:20;4.60;72.60
71668;DHT22;59504;54.806;9.640;2022-10-20T00:02:21;4.60;72.70
71668;DHT22;59504;54.806;9.640;2022-10-20T00:04:22;4.60;72.70
71668;DHT22;59504;54.806;9.640;2022-10-20T00:06:25;4.60;72.80
71668;DHT22;59504;54.806;9.640;2022-10-20T00:08:26;4.60;72.90
71668;DHT22;59504;54.806;9.640;2022-10-20T00:10:26;4.60;73.00
71668;DHT22;59504;54.806;9.640;2022-10-20T00:12:27;4.60;73.10
71668;DHT22;59504;54.806;9.640;2022-10-20T00:14:28;4.60;73.10
71668;DHT22;59504;54.806;9.640;2022-10-20T00:16:30;4.60;73.90
71668;DHT22;59504;54.806;9.640;2022-10-20T00:18:31;4.80;73.30
71668;DHT22;59504;54.806;9.640;2022-10-20T00:20:32;4.60;73.20
71668;DHT22;59504;54.806;9.640;2022-10-20T00:22:33;4.50;73.10
71668;DHT22;59504;54.806;9.640;2022-10-20T00:24:33;4.60;73.10
71668;DHT22;59504;54.806;9.640;2022-10-20T00:26:34;4.60;73.20
71668;DHT22;59504;54.806;9.640;2022-10-20T00:28:34;4.60;73.10
71668;DHT22;59504;54.806;9.640;2022-10-20T00:30:35;4.60;73.10
71668;DHT22;59504;54.806;9.640;2022-10-20T00:32:36;4.60;73.20
71668;DHT22;59504;54.806;9.640;2022-10-20T00:34:37;4.60;74.00
71668;DHT22;59504;54.806;9.640;2022-10-20T00:36:38;4.60;73.40
71668;DHT22;59504;54.806;9.640;2022-10-20T00:38:39;4.60;73.40
71668;DHT22;59504;54.806;9.640;2022-10-20T00:40:40;4.70;73.50
71668;DHT22;59504;54.806;9.640;2022-10-20T00:43:01;4.60;73.50
71668;DHT22;59504;54.806;9.640;2022-10-20T00:45:21;4.60;73.40
71668;DHT22;59504;54.806;9.640;2022-10-20T00:47:43;4.60;73.40
71668;DHT22;59504;54.806;9.640;2022-10-20T00:52:21;4.60;73.50
71668;DHT22;59504;54.806;9.640;2022-10-20T00:54:24;4.60;73.60
71668;DHT22;59504;54.806;9.640;2022-10-20T00:56:26;4.60;73.60
71668;DHT22;59504;54.806;9.640;2022-10-20T00:58:27;4.60;73.70
71668;DHT22;59504;54.806;9.640;2022-10-20T01:00:28;4.70;73.80
71668;DHT22;59504;54.806;9.640;2022-10-20T01:02:29;4.70;73.90
71668;DHT22;59504;54.806;9.640;2022-10-20T01:04:49;4.60;73.80
71668;DHT22;59504;54.806;9.640;2022-10-20T01:07:09;4.70;73.90
71668;DHT22;59504;54.806;9.640;2022-10-20T01:09:22;4.70;73.90
71668;DHT22;59504;54.806;9.640;2022-10-20T01:11:38;4.60;73.70
71668;DHT22;59504;54.806;9.640;2022-10-20T01:16:18;4.60;73.80
71668;DHT22;59504;54.806;9.640;2022-10-20T01:21:01;4.60;73.70
71668;DHT22;59504;54.806;9.640;2022-10-20T01:25:43;4.60;73.60
71668;DHT22;59504;54.806;9.640;2022-10-20T01:27:58;4.60;73.80
71668;DHT22;59504;54.806;9.640;2022-10-20T01:30:16;4.60;73.80
71668;DHT22;59504;54.806;9.640;2022-10-20T01:32:27;4.60;73.80
71668;DHT22;59504;54.806;9.640;2022-10-20T01:36:43;4.60;73.80
71668;DHT22;59504;54.806;9.640;2022-10-20T01:39:00;4.60;73.90
71668;DHT22;59504;54.806;9.640;2022-10-20T01:41:17;4.60;74.00
71668;DHT22;59504;54.806;9.640;2022-10-20T01:43:22;4.60;74.10
71668;DHT22;59504;54.806;9.640;2022-10-20T01:45:27;4.50;73.90
71668;DHT22;59504;54.806;9.640;2022-10-20T01:47:31;4.50;74.00
71668;DHT22;59504;54.806;9.640;2022-10-20T01:49:34;4.50;74.00
71668;DHT22;59504;54.806;9.640;2022-10-20T01:51:35;4.50;74.00
71668;DHT22;59504;54.806;9.640;2022-10-20T01:53:36;4.50;73.90
71668;DHT22;59504;54.806;9.640;2022-10-20T01:55:37;4.50;74.10
71668;DHT22;59504;54.806;9.640;2022-10-20T02:00:09;4.50;74.20
71668;DHT22;59504;54.806;9.640;2022-10-20T02:07:26;4.50;74.10
71668;DHT22;59504;54.806;9.640;2022-10-20T02:09:35;4.50;74.10
71668;DHT22;59504;54.806;9.640;2022-10-20T02:11:53;4.50;74.10
71668;DHT22;59504;54.806;9.640;2022-10-20T02:13:56;4.40;74.20
71668;DHT22;59504;54.806;9.640;2022-10-20T02:16:00;4.40;74.20
71668;DHT22;59504;54.806;9.640;2022-10-20T02:18:06;4.40;74.20
71668;DHT22;59504;54.806;9.640;2022-10-20T02:20:07;4.40;74.10
71668;DHT22;59504;54.806;9.640;2022-10-20T02:22:11;4.40;74.20
71668;DHT22;59504;54.806;9.640;2022-10-20T02:24:13;4.40;74.30
71668;DHT22;59504;54.806;9.640;2022-10-20T02:26:17;4.40;74.40
71668;DHT22;59504;54.806;9.640;2022-10-20T02:28:19;4.40;74.50
71668;DHT22;59504;54.806;9.640;2022-10-20T02:30:21;4.40;74.50
71668;DHT22;59504;54.806;9.640;2022-10-20T02:32:23;4.40;74.40
71668;DHT22;59504;54.806;9.640;2022-10-20T02:34:27;4.40;74.50
71668;DHT22;59504;54.806;9.640;2022-10-20T02:36:29;4.40;74.50
71668;DHT22;59504;54.806;9.640;2022-10-20T02:38:29;4.40;74.50
71668;DHT22;59504;54.806;9.640;2022-10-20T02:40:30;4.40;74.40
71668;DHT22;59504;54.806;9.640;2022-10-20T02:42:31;4.30;74.20
71668;DHT22;59504;54.806;9.640;2022-10-20T02:44:32;4.30;74.10
71668;DHT22;59504;54.806;9.640;2022-10-20T02:46:33;4.30;74.20
71668;DHT22;59504;54.806;9.640;2022-10-20T02:48:34;4.30;74.40
71668;DHT22;59504;54.806;9.640;2022-10-20T02:50:35;4.30;74.40
71668;DHT22;59504;54.806;9.640;2022-10-20T02:52:36;4.30;74.50
71668;DHT22;59504;54.806;9.640;2022-10-20T02:54:37;4.30;74.70
71668;DHT22;59504;54.806;9.640;2022-10-20T02:56:38;4.30;74.80
71668;DHT22;59504;54.806;9.640;2022-10-20T02:58:39;4.30;74.90
71668;DHT22;59504;54.806;9.640;2022-10-20T03:00:40;4.30;75.00
71668;DHT22;59504;54.806;9.640;2022-10-20T03:03:00;4.40;75.10
71668;DHT22;59504;54.806;9.640;2022-10-20T03:05:01;4.30;75.10
71668;DHT22;59504;54.806;9.640;2022-10-20T03:07:22;4.30;75.10
71668;DHT22;59504;54.806;9.640;2022-10-20T03:09:23;4.40;75.20
71668;DHT22;59504;54.806;9.640;2022-10-20T03:11:35;4.30;75.10
71668;DHT22;59504;54.806;9.640;2022-10-20T03:13:35;4.30;75.10
71668;DHT22;59504;54.806;9.640;2022-10-20T03:15:36;4.30;75.10
71668;DHT22;59504;54.806;9.640;2022-10-20T03:17:57;4.30;75.10
71668;DHT22;59504;54.806;9.640;2022-10-20T03:20:17;4.30;75.10
71668;DHT22;59504;54.806;9.640;2022-10-20T03:22:19;4.30;75.00
71668;DHT22;59504;54.806;9.640;2022-10-20T03:24:26;4.40;75.10
71668;DHT22;59504;54.806;9.640;2022-10-20T03:26:33;4.30;75.20
71668;DHT22;59504;54.806;9.640;2022-10-20T03:28:54;4.30;75.30
71668;DHT22;59504;54.806;9.640;2022-10-20T03:31:15;4.30;75.30
71668;DHT22;59504;54.806;9.640;2022-10-20T03:33:16;4.30;75.30
71668;DHT22;59504;54.806;9.640;2022-10-20T03:35:36;4.30;75.40
71668;DHT22;59504;54.806;9.640;2022-10-20T03:37:57;4.30;75.50
71668;DHT22;59504;54.806;9.640;2022-10-20T03:40:18;4.30;75.40
71668;DHT22;59504;54.806;9.640;2022-10-20T03:42:38;4.30;75.30
71668;DHT22;59504;54.806;9.640;2022-10-20T03:44:59;4.30;75.10
71668;DHT22;59504;54.806;9.640;2022-10-20T03:47:19;4.30;75.20
71668;DHT22;59504;54.806;9.640;2022-10-20T03:49:40;4.20;75.20
71668;DHT22;59504;54.806;9.640;2022-10-20T03:52:01;4.20;75.30
71668;DHT22;59504;54.806;9.640;2022-10-20T03:54:21;4.20;75.30
71668;DHT22;59504;54.806;9.640;2022-10-20T03:56:42;4.20;75.30
71668;DHT22;59504;54.806;9.640;2022-10-20T03:59:02;4.20;75.40
71668;DHT22;59504;54.806;9.640;2022-10-20T04:01:28;4.20;75.30
71668;DHT22;59504;54.806;9.640;2022-10-20T04:03:49;4.20;75.30
71668;DHT22;59504;54.806;9.640;2022-10-20T04:06:13;4.20;75.30
71668;DHT22;59504;54.806;9.640;2022-10-20T04:08:34;4.20;75.10
71668;DHT22;59504;54.806;9.640;2022-10-20T04:10:56;4.20;75.10
71668;DHT22;59504;54.806;9.640;2022-10-20T04:13:17;4.20;75.20
71668;DHT22;59504;54.806;9.640;2022-10-20T04:15:38;4.10;75.20
71668;DHT22;59504;54.806;9.640;2022-10-20T04:17:58;4.10;75.30
71668;DHT22;59504;54.806;9.640;2022-10-20T04:20:19;4.10;75.30
71668;DHT22;59504;54.806;9.640;2022-10-20T04:22:40;4.10;75.30
71668;DHT22;59504;54.806;9.640;2022-10-20T04:25:01;4.10;75.30
71668;DHT22;59504;54.806;9.640;2022-10-20T04:27:21;4.10;75.40
71668;DHT22;59504;54.806;9.640;2022-10-20T04:29:42;4.10;75.50
71668;DHT22;59504;54.806;9.640;2022-10-20T04:32:03;4.10;75.60
71668;DHT22;59504;54.806;9.640;2022-10-20T04:34:23;4.10;75.60
71668;DHT22;59504;54.806;9.640;2022-10-20T04:36:44;4.10;75.50
71668;DHT22;59504;54.806;9.640;2022-10-20T04:39:05;4.10;75.50
71668;DHT22;59504;54.806;9.640;2022-10-20T04:41:26;4.10;75.60
71668;DHT22;59504;54.806;9.640;2022-10-20T04:43:51;4.10;75.70
71668;DHT22;59504;54.806;9.640;2022-10-20T04:46:12;4.10;75.70
71668;DHT22;59504;54.806;9.640;2022-10-20T04:48:33;4.10;75.70
71668;DHT22;59504;54.806;9.640;2022-10-20T04:51:05;4.10;75.70
71668;DHT22;59504;54.806;9.640;2022-10-20T04:53:26;4.10;75.80
71668;DHT22;59504;54.806;9.640;2022-10-20T04:55:53;4.10;75.90
71668;DHT22;59504;54.806;9.640;2022-10-20T04:58:14;4.10;75.80
71668;DHT22;59504;54.806;9.640;2022-10-20T05:00:36;4.10;75.80
71668;DHT22;59504;54.806;9.640;2022-10-20T05:02:57;4.10;75.80
71668;DHT22;59504;54.806;9.640;2022-10-20T05:05:17;4.10;75.90
71668;DHT22;59504;54.806;9.640;2022-10-20T05:07:38;4.10;75.90
71668;DHT22;59504;54.806;9.640;2022-10-20T05:09:59;4.10;76.00
71668;DHT22;59504;54.806;9.640;2022-10-20T05:12:19;4.10;76.00
71668;DHT22;59504;54.806;9.640;2022-10-20T05:14:40;4.10;76.00
71668;DHT22;59504;54.806;9.640;2022-10-20T05:17:00;4.10;76.10
71668;DHT22;59504;54.806;9.640;2022-10-20T05:19:21;4.10;76.00
71668;DHT22;59504;54.806;9.640;2022-10-20T05:21:42;4.10;75.90
71668;DHT22;59504;54.806;9.640;2022-10-20T05:24:02;4.00;75.90
71668;DHT22;59504;54.806;9.640;2022-10-20T05:26:23;4.00;75.90
71668;DHT22;59504;54.806;9.640;2022-10-20T05:28:44;4.00;76.00
71668;DHT22;59504;54.806;9.640;2022-10-20T05:31:06;4.00;76.00
71668;DHT22;59504;54.806;9.640;2022-10-20T05:33:22;4.00;76.00
71668;DHT22;59504;54.806;9.640;2022-10-20T05:35:41;4.00;76.00
71668;DHT22;59504;54.806;9.640;2022-10-20T05:38:01;4.00;76.00
71668;DHT22;59504;54.806;9.640;2022-10-20T05:40:20;4.00;76.00
71668;DHT22;59504;54.806;9.640;2022-10-20T05:42:40;4.00;76.00
71668;DHT22;59504;54.806;9.640;2022-10-20T05:44:59;4.00;75.90
71668;DHT22;59504;54.806;9.640;2022-10-20T05:47:18;3.90;75.80
71668;DHT22;59504;54.806;9.640;2022-10-20T05:49:37;3.90;76.60
71668;DHT22;59504;54.806;9.640;2022-10-20T05:51:56;3.90;75.80
71668;DHT22;59504;54.806;9.640;2022-10-20T05:54:15;3.90;75.70
71668;DHT22;59504;54.806;9.640;2022-10-20T05:56:34;3.90;75.70
71668;DHT22;59504;54.806;9.640;2022-10-20T05:58:53;3.80;75.80
71668;DHT22;59504;54.806;9.640;2022-10-20T06:01:18;3.80;76.00
71668;DHT22;59504;54.806;9.640;2022-10-20T06:03:39;3.80;76.20
71668;DHT22;59504;54.806;9.640;2022-10-20T06:05:59;3.80;76.40
71668;DHT22;59504;54.806;9.640;2022-10-20T06:08:19;3.80;76.40
71668;DHT22;59504;54.806;9.640;2022-10-20T06:10:38;3.80;76.60
71668;DHT22;59504;54.806;9.640;2022-10-20T06:12:57;3.90;76.80
71668;DHT22;59504;54.806;9.640;2022-10-20T06:15:16;3.90;76.90
71668;DHT22;59504;54.806;9.640;2022-10-20T06:17:36;3.90;76.90
71668;DHT22;59504;54.806;9.640;2022-10-20T06:19:55;3.90;76.90
71668;DHT22;59504;54.806;9.640;2022-10-20T06:22:14;3.90;76.90
71668;DHT22;59504;54.806;9.640;2022-10-20T06:24:33;3.90;76.90
71668;DHT22;59504;54.806;9.640;2022-10-20T06:26:52;3.90;76.90
71668;DHT22;59504;54.806;9.640;2022-10-20T06:29:14;4.00;77.00
71668;DHT22;59504;54.806;9.640;2022-10-20T06:31:39;4.00;77.10
71668;DHT22;59504;54.806;9.640;2022-10-20T06:33:59;4.00;77.30
71668;DHT22;59504;54.806;9.640;2022-10-20T06:36:20;4.00;77.50
71668;DHT22;59504;54.806;9.640;2022-10-20T06:38:41;4.10;77.80
71668;DHT22;59504;54.806;9.640;2022-10-20T06:41:01;4.10;78.00
71668;DHT22;59504;54.806;9.640;2022-10-20T06:43:21;4.20;78.30
71668;DHT22;59504;54.806;9.640;2022-10-20T06:45:40;4.20;78.50
71668;DHT22;59504;54.806;9.640;2022-10-20T06:47:59;4.30;78.70
71668;DHT22;59504;54.806;9.640;2022-10-20T06:50:19;4.30;79.10
71668;DHT22;59504;54.806;9.640;2022-10-20T06:52:38;4.40;79.20
71668;DHT22;59504;54.806;9.640;2022-10-20T06:54:57;4.50;79.30
71668;DHT22;59504;54.806;9.640;2022-10-20T06:57:16;4.60;79.40
71668;DHT22;59504;54.806;9.640;2022-10-20T06:59:35;4.60;79.50
71668;DHT22;59504;54.806;9.640;2022-10-20T07:01:56;4.70;79.70
71668;DHT22;59504;54.806;9.640;2022-10-20T07:04:15;4.80;79.80
71668;DHT22;59504;54.806;9.640;2022-10-20T07:06:37;4.90;79.90
71668;DHT22;59504;54.806;9.640;2022-10-20T07:08:58;4.90;80.00
71668;DHT22;59504;54.806;9.640;2022-10-20T07:11:19;5.00;80.10
71668;DHT22;59504;54.806;9.640;2022-10-20T07:13:40;5.10;80.20
71668;DHT22;59504;54.806;9.640;2022-10-20T07:15:59;5.20;80.20
71668;DHT22;59504;54.806;9.640;2022-10-20T07:18:19;5.20;80.30
71668;DHT22;59504;54.806;9.640;2022-10-20T07:20:38;5.30;80.50
71668;DHT22;59504;54.806;9.640;2022-10-20T07:22:57;5.40;80.60
71668;DHT22;59504;54.806;9.640;2022-10-20T07:25:16;5.50;80.70
71668;DHT22;59504;54.806;9.640;2022-10-20T07:27:39;5.50;80.90
71668;DHT22;59504;54.806;9.640;2022-10-20T07:29:58;5.60;81.10
71668;DHT22;59504;54.806;9.640;2022-10-20T07:32:17;5.70;81.10
71668;DHT22;59504;54.806;9.640;2022-10-20T07:34:36;5.80;81.30
71668;DHT22;59504;54.806;9.640;2022-10-20T07:36:56;5.90;81.60
71668;DHT22;59504;54.806;9.640;2022-10-20T07:39:15;6.00;81.60
71668;DHT22;59504;54.806;9.640;2022-10-20T07:41:36;6.00;81.70
71668;DHT22;59504;54.806;9.640;2022-10-20T07:43:56;6.20;81.90
71668;DHT22;59504;54.806;9.640;2022-10-20T07:46:15;6.30;82.00
71668;DHT22;59504;54.806;9.640;2022-10-20T07:48:35;6.30;82.30
71668;DHT22;59504;54.806;9.640;2022-10-20T07:53:40;6.60;82.60
71668;DHT22;59504;54.806;9.640;2022-10-20T07:55:59;6.70;82.80
71668;DHT22;59504;54.806;9.640;2022-10-20T07:58:18;6.90;82.70
71668;DHT22;59504;54.806;9.640;2022-10-20T08:00:37;6.90;82.50
71668;DHT22;59504;54.806;9.640;2022-10-20T08:02:56;7.00;82.70
71668;DHT22;59504;54.806;9.640;2022-10-20T08:05:15;7.10;82.60
71668;DHT22;59504;54.806;9.640;2022-10-20T08:07:34;7.20;82.70
71668;DHT22;59504;54.806;9.640;2022-10-20T08:09:53;7.20;82.90
71668;DHT22;59504;54.806;9.640;2022-10-20T08:12:12;7.40;82.70
71668;DHT22;59504;54.806;9.640;2022-10-20T08:14:32;7.40;82.60
71668;DHT22;59504;54.806;9.640;2022-10-20T08:16:53;7.50;82.70
71668;DHT22;59504;54.806;9.640;2022-10-20T08:19:13;7.60;82.70
71668;DHT22;59504;54.806;9.640;2022-10-20T08:21:32;7.70;82.90
71668;DHT22;59504;54.806;9.640;2022-10-20T08:23:51;7.80;83.20
71668;DHT22;59504;54.806;9.640;2022-10-20T08:26:11;7.90;83.00
71668;DHT22;59504;54.806;9.640;2022-10-20T08:28:31;8.00;83.00
71668;DHT22;59504;54.806;9.640;2022-10-20T08:30:50;8.10;83.20
71668;DHT22;59504;54.806;9.640;2022-10-20T08:33:09;8.30;82.90
71668;DHT22;59504;54.806;9.640;2022-10-20T08:35:28;8.20;82.70
71668;DHT22;59504;54.806;9.640;2022-10-20T08:37:48;8.30;82.50
71668;DHT22;59504;54.806;9.640;2022-10-20T08:40:09;8.40;82.30
71668;DHT22;59504;54.806;9.640;2022-10-20T08:42:38;8.40;82.00
71668;DHT22;59504;54.806;9.640;2022-10-20T08:44:58;8.60;82.00
71668;DHT22;59504;54.806;9.640;2022-10-20T08:47:26;8.60;81.80
71668;DHT22;59504;54.806;9.640;2022-10-20T08:49:45;8.70;81.60
71668;DHT22;59504;54.806;9.640;2022-10-20T08:52:10;8.80;81.50
71668;DHT22;59504;54.806;9.640;2022-10-20T08:54:33;8.80;81.40
71668;DHT22;59504;54.806;9.640;2022-10-20T08:56:52;8.90;81.40
71668;DHT22;59504;54.806;9.640;2022-10-20T08:59:27;9.10;81.20
71668;DHT22;59504;54.806;9.640;2022-10-20T09:01:47;9.10;80.70
71668;DHT22;59504;54.806;9.640;2022-10-20T09:04:18;9.10;80.30
71668;DHT22;59504;54.806;9.640;2022-10-20T09:06:40;9.20;79.90
71668;DHT22;59504;54.806;9.640;2022-10-20T09:09:02;9.20;79.70
71668;DHT22;59504;54.806;9.640;2022-10-20T09:11:24;9.30;79.40
71668;DHT22;59504;54.806;9.640;2022-10-20T09:13:46;9.30;79.00
71668;DHT22;59504;54.806;9.640;2022-10-20T09:16:11;9.40;78.60
71668;DHT22;59504;54.806;9.640;2022-10-20T09:18:33;9.40;78.00
71668;DHT22;59504;54.806;9.640;2022-10-20T09:20:53;9.50;77.60
71668;DHT22;59504;54.806;9.640;2022-10-20T09:23:15;9.70;77.40
71668;DHT22;59504;54.806;9.640;2022-10-20T09:25:36;9.60;76.90
71668;DHT22;59504;54.806;9.640;2022-10-20T09:27:55;9.70;76.50
71668;DHT22;59504;54.806;9.640;2022-10-20T09:32:36;9.80;75.90
71668;DHT22;59504;54.806;9.640;2022-10-20T09:35:24;9.90;75.80
71668;DHT22;59504;54.806;9.640;2022-10-20T09:37:26;9.90;75.20
71668;DHT22;59504;54.806;9.640;2022-10-20T09:39:29;9.90;74.90
71668;DHT22;59504;54.806;9.640;2022-10-20T09:41:32;10.10;74.50
71668;DHT22;59504;54.806;9.640;2022-10-20T09:43:38;10.00;74.00
71668;DHT22;59504;54.806;9.640;2022-10-20T09:45:50;10.20;73.90
71668;DHT22;59504;54.806;9.640;2022-10-20T09:47:55;10.20;73.70
71668;DHT22;59504;54.806;9.640;2022-10-20T09:50:02;10.20;73.50
71668;DHT22;59504;54.806;9.640;2022-10-20T09:52:16;10.20;73.30
71668;DHT22;59504;54.806;9.640;2022-10-20T09:54:18;10.30;73.00
71668;DHT22;59504;54.806;9.640;2022-10-20T09:56:28;10.30;72.80
71668;DHT22;59504;54.806;9.640;2022-10-20T09:58:32;10.30;72.70
71668;DHT22;59504;54.806;9.640;2022-10-20T10:00:43;10.60;72.60
71668;DHT22;59504;54.806;9.640;2022-10-20T10:02:45;10.50;72.30
71668;DHT22;59504;54.806;9.640;2022-10-20T10:04:48;10.60;71.60
71668;DHT22;59504;54.806;9.640;2022-10-20T10:06:48;10.50;71.40
71668;DHT22;59504;54.806;9.640;2022-10-20T10:08:49;10.70;71.40
71668;DHT22;59504;54.806;9.640;2022-10-20T10:10:59;10.60;71.30
71668;DHT22;59504;54.806;9.640;2022-10-20T10:13:00;10.60;70.50
71668;DHT22;59504;54.806;9.640;2022-10-20T10:15:27;10.60;70.20
71668;DHT22;59504;54.806;9.640;2022-10-20T10:17:37;10.60;70.20
71668;DHT22;59504;54.806;9.640;2022-10-20T10:19:39;10.70;70.10
71668;DHT22;59504;54.806;9.640;2022-10-20T10:21:45;10.80;70.20
71668;DHT22;59504;54.806;9.640;2022-10-20T10:23:58;10.80;70.10
71668;DHT22;59504;54.806;9.640;2022-10-20T10:26:00;11.00;70.20
71668;DHT22;59504;54.806;9.640;2022-10-20T10:28:07;10.90;69.90
71668;DHT22;59504;54.806;9.640;2022-10-20T10:30:29;11.00;69.40
71668;DHT22;59504;54.806;9.640;2022-10-20T10:32:31;11.00;69.10
71668;DHT22;59504;54.806;9.640;2022-10-20T10:36:45;11.10;68.60
71668;DHT22;59504;54.806;9.640;2022-10-20T10:38:47;11.10;68.00
71668;DHT22;59504;54.806;9.640;2022-10-20T10:45:59;11.20;67.70
71668;DHT22;59504;54.806;9.640;2022-10-20T10:48:48;11.30;66.60
71668;DHT22;59504;54.806;9.640;2022-10-20T10:53:35;11.40;67.00
71668;DHT22;59504;54.806;9.640;2022-10-20T10:55:59;11.30;67.10
71668;DHT22;59504;54.806;9.640;2022-10-20T10:58:51;11.40;66.50
71668;DHT22;59504;54.806;9.640;2022-10-20T11:01:23;11.40;67.00
71668;DHT22;59504;54.806;9.640;2022-10-20T11:14:31;11.60;65.90
71668;DHT22;59504;54.806;9.640;2022-10-20T11:20:03;11.60;65.50
71668;DHT22;59504;54.806;9.640;2022-10-20T11:25:36;11.70;65.70
71668;DHT22;59504;54.806;9.640;2022-10-20T11:27:57;11.70;64.80
71668;DHT22;59504;54.806;9.640;2022-10-20T11:30:20;11.70;64.70
71668;DHT22;59504;54.806;9.640;2022-10-20T11:33:15;11.80;64.90
71668;DHT22;59504;54.806;9.640;2022-10-20T11:38:23;11.80;65.10
71668;DHT22;59504;54.806;9.640;2022-10-20T11:40:54;11.70;64.60
71668;DHT22;59504;54.806;9.640;2022-10-20T11:43:24;11.90;64.80
71668;DHT22;59504;54.806;9.640;2022-10-20T11:46:03;11.80;64.20
71668;DHT22;59504;54.806;9.640;2022-10-20T11:48:29;11.90;64.40
71668;DHT22;59504;54.806;9.640;2022-10-20T11:53:54;11.90;64.40
71668;DHT22;59504;54.806;9.640;2022-10-20T11:56:20;11.90;64.30
71668;DHT22;59504;54.806;9.640;2022-10-20T12:04:04;12.00;62.10
71668;DHT22;59504;54.806;9.640;2022-10-20T12:07:04;11.90;62.30
71668;DHT22;59504;54.806;9.640;2022-10-20T12:12:11;11.90;62.30
71668;DHT22;59504;54.806;9.640;2022-10-20T12:14:40;11.80;62.40
71668;DHT22;59504;54.806;9.640;2022-10-20T12:19:49;11.80;62.90
71668;DHT22;59504;54.806;9.640;2022-10-20T12:24:36;11.80;63.10
71668;DHT22;59504;54.806;9.640;2022-10-20T12:27:16;11.70;63.40
71668;DHT22;59504;54.806;9.640;2022-10-20T12:32:36;11.70;63.60
71668;DHT22;59504;54.806;9.640;2022-10-20T12:35:00;11.70;63.70
71668;DHT22;59504;54.806;9.640;2022-10-20T12:37:29;11.70;63.80
71668;DHT22;59504;54.806;9.640;2022-10-20T12:39:52;11.70;64.00
71668;DHT22;59504;54.806;9.640;2022-10-20T12:42:28;11.70;64.50
71668;DHT22;59504;54.806;9.640;2022-10-20T12:44:50;11.60;64.90
71668;DHT22;59504;54.806;9.640;2022-10-20T12:47:22;11.60;65.20
71668;DHT22;59504;54.806;9.640;2022-10-20T12:52:35;11.60;65.40
71668;DHT22;59504;54.806;9.640;2022-10-20T12:55:17;11.60;65.60
71668;DHT22;59504;54.806;9.640;2022-10-20T12:57:41;11.50;65.80
71668;DHT22;59504;54.806;9.640;2022-10-20T13:00:07;11.60;66.20
71668;DHT22;59504;54.806;9.640;2022-10-20T13:02:54;11.50;66.40
71668;DHT22;59504;54.806;9.640;2022-10-20T13:12:46;11.60;66.60
71668;DHT22;59504;54.806;9.640;2022-10-20T13:15:11;11.50;66.50
71668;DHT22;59504;54.806;9.640;2022-10-20T13:17:50;11.50;66.30
71668;DHT22;59504;54.806;9.640;2022-10-20T13:22:52;11.40;66.60
71668;DHT22;59504;54.806;9.640;2022-10-20T13:25:33;11.40;66.70
71668;DHT22;59504;54.806;9.640;2022-10-20T13:28:03;11.40;66.90
71668;DHT22;59504;54.806;9.640;2022-10-20T13:30:25;11.30;66.60
71668;DHT22;59504;54.806;9.640;2022-10-20T13:33:29;11.30;66.80
71668;DHT22;59504;54.806;9.640;2022-10-20T13:35:45;11.30;66.80
71668;DHT22;59504;54.806;9.640;2022-10-20T13:51:24;11.20;66.90
71668;DHT22;59504;54.806;9.640;2022-10-20T13:53:48;11.20;67.00
71668;DHT22;59504;54.806;9.640;2022-10-20T13:58:37;11.10;66.80
71668;DHT22;59504;54.806;9.640;2022-10-20T14:01:13;11.10;67.00
71668;DHT22;59504;54.806;9.640;2022-10-20T14:03:41;11.10;67.10
71668;DHT22;59504;54.806;9.640;2022-10-20T14:06:03;11.10;67.00
71668;DHT22;59504;54.806;9.640;2022-10-20T14:08:24;11.10;66.80
71668;DHT22;59504;54.806;9.640;2022-10-20T14:10:54;11.10;66.90
71668;DHT22;59504;54.806;9.640;2022-10-20T14:13:19;11.10;67.00
71668;DHT22;59504;54.806;9.640;2022-10-20T14:15:45;11.20;67.00
71668;DHT22;59504;54.806;9.640;2022-10-20T14:18:21;11.30;67.10
71668;DHT22;59504;54.806;9.640;2022-10-20T14:20:59;11.20;67.70
71668;DHT22;59504;54.806;9.640;2022-10-20T14:23:23;11.20;66.90
71668;DHT22;59504;54.806;9.640;2022-10-20T14:25:44;11.20;67.00
71668;DHT22;59504;54.806;9.640;2022-10-20T14:28:05;11.20;67.10
71668;DHT22;59504;54.806;9.640;2022-10-20T14:30:27;11.20;67.20
71668;DHT22;59504;54.806;9.640;2022-10-20T14:32:49;11.10;67.10
71668;DHT22;59504;54.806;9.640;2022-10-20T14:35:22;11.20;67.20
71668;DHT22;59504;54.806;9.640;2022-10-20T14:37:51;11.10;67.10
71668;DHT22;59504;54.806;9.640;2022-10-20T14:40:20;11.20;67.20
71668;DHT22;59504;54.806;9.640;2022-10-20T14:42:43;11.20;67.30
71668;DHT22;59504;54.806;9.640;2022-10-20T14:45:04;11.30;67.30
71668;DHT22;59504;54.806;9.640;2022-10-20T14:47:37;11.20;67.30
71668;DHT22;59504;54.806;9.640;2022-10-20T14:49:59;11.20;67.30
71668;DHT22;59504;54.806;9.640;2022-10-20T14:52:22;11.20;67.40
71668;DHT22;59504;54.806;9.640;2022-10-20T14:54:51;11.20;67.50
71668;DHT22;59504;54.806;9.640;2022-10-20T14:59:35;11.20;67.90
71668;DHT22;59504;54.806;9.640;2022-10-20T15:02:33;11.20;68.30
71668;DHT22;59504;54.806;9.640;2022-10-20T15:04:54;11.10;68.40
71668;DHT22;59504;54.806;9.640;2022-10-20T15:12:18;11.10;68.90
71668;DHT22;59504;54.806;9.640;2022-10-20T15:14:43;11.10;68.80
71668;DHT22;59504;54.806;9.640;2022-10-20T15:17:04;11.10;68.90
71668;DHT22;59504;54.806;9.640;2022-10-20T15:19:28;11.10;69.00
71668;DHT22;59504;54.806;9.640;2022-10-20T15:21:52;11.10;69.00
71668;DHT22;59504;54.806;9.640;2022-10-20T15:24:17;11.20;69.20
71668;DHT22;59504;54.806;9.640;2022-10-20T15:26:38;11.20;69.00
71668;DHT22;59504;54.806;9.640;2022-10-20T15:28:59;11.20;69.20
71668;DHT22;59504;54.806;9.640;2022-10-20T15:31:22;11.10;69.20
71668;DHT22;59504;54.806;9.640;2022-10-20T15:33:43;11.10;69.30
71668;DHT22;59504;54.806;9.640;2022-10-20T15:36:19;11.10;69.30
71668;DHT22;59504;54.806;9.640;2022-10-20T15:38:41;11.10;69.30
71668;DHT22;59504;54.806;9.640;2022-10-20T15:41:02;11.00;69.10
71668;DHT22;59504;54.806;9.640;2022-10-20T15:43:23;11.00;69.20
71668;DHT22;59504;54.806;9.640;2022-10-20T15:45:54;11.00;69.10
71668;DHT22;59504;54.806;9.640;2022-10-20T15:48:15;11.00;69.00
71668;DHT22;59504;54.806;9.640;2022-10-20T15:50:37;11.00;68.90
71668;DHT22;59504;54.806;9.640;2022-10-20T15:52:58;11.00;68.80
71668;DHT22;59504;54.806;9.640;2022-10-20T15:55:24;11.00;68.80
71668;DHT22;59504;54.806;9.640;2022-10-20T15:57:45;10.90;68.70
71668;DHT22;59504;54.806;9.640;2022-10-20T16:00:06;11.00;68.70
71668;DHT22;59504;54.806;9.640;2022-10-20T16:02:27;10.90;68.50
71668;DHT22;59504;54.806;9.640;2022-10-20T16:04:48;10.90;68.60
71668;DHT22;59504;54.806;9.640;2022-10-20T16:07:09;10.90;68.50
71668;DHT22;59504;54.806;9.640;2022-10-20T16:09:30;11.00;68.50
71668;DHT22;59504;54.806;9.640;2022-10-20T16:11:51;10.90;68.40
71668;DHT22;59504;54.806;9.640;2022-10-20T16:14:12;11.00;68.50
71668;DHT22;59504;54.806;9.640;2022-10-20T16:16:35;10.90;68.50
71668;DHT22;59504;54.806;9.640;2022-10-20T16:18:56;10.90;68.50
71668;DHT22;59504;54.806;9.640;2022-10-20T16:21:16;10.90;68.40
71668;DHT22;59504;54.806;9.640;2022-10-20T16:23:37;10.90;68.50
71668;DHT22;59504;54.806;9.640;2022-10-20T16:25:58;10.80;68.40
71668;DHT22;59504;54.806;9.640;2022-10-20T16:28:19;10.80;68.50